Olanta, PA (16863)

11:04 AM EST on February 10, 2016 (GMT -0500)
Twinoaks | | Change Station
CLOSE
Current Station
Personal Weather Station
Location: Curwensville, PA
Elevation: 1493 ft
Nearby Weather Stations

Elev 1493 ft 40.99 °N, 78.53 °W | Updated 10 minutes ago

Snow
Snow
22.5 °F
Feels Like 14 °F
N
6.8
Wind Variable Wind from WSW

Today
High -- | Low -- °F
--% Chance of Precip.
Yesterday
High -- | Low -- °F
Precip. -- in
Pressure 29.75 in
Visibility 6.0 miles
Clouds Mostly Cloudy 2400 ft
Overcast 3300 ft
Windchill 14 °F
Dew Point 18 °F
Humidity 82%
Rainfall 0.00 in
Snow Depth Not available.
7:15 AM 5:41 PM
Waxing Crescent, 6% visible
METAR KFIG 101554Z AUTO 26011G19KT 220V280 6SM -SN BKN024 OVC033 M04/M10 A2969 RMK AO2 SLP074 P0000 T10441100
Pressure 29.75 in
Visibility 6.0 miles
Clouds Mostly Cloudy 2400 ft
Overcast 3300 ft
Windchill 14 °F
Dew Point 18 °F
Humidity 82%
Rainfall 0.00 in
Snow Depth Not available.
7:15 AM 5:41 PM
Waxing Crescent, 6% visible
METAR KFIG 101554Z AUTO 26011G19KT 220V280 6SM -SN BKN024 OVC033 M04/M10 A2969 RMK AO2 SLP074 P0000 T10441100

10-Day Weather Forecast

Almanac

Astronomy

Feb. 10, 2016 Rise Set
Actual Time
Civil Twilight
Nautical Twilight
Astronomical Twilight
Moon
Length of Visible Light
Length of Day
Tomorrow will be .
, % of the Moon is Illuminated

Today's Extremes

State Highs State Lows

Community

WunderPhotos

Upload Photos

1,891,862 photos uploaded!

WunderBlog® & News

Nearby

Air Quality

  Air Quality AQ Index Pollutant
Not available.

Snow Depth

Station Depth Elevation

Earthquake Activity

City Distance Mag. Time & Date
Minimum magnitude displayed is 2.5.

Coastal Water Temperatures

Place Temperature

Stations

Nearby Weather Stations

Station Location Temp. Windchill Dew Point Humidity Wind Precip. Elev Updated Type
                   

Watches & Warnings

There are currently no watches in effect.